sensor_id;sensor_type;location;lat;lon;timestamp;P1;durP1;ratioP1;P2;durP2;ratioP2
24663;SDS011;12791;50.992;13.788;2023-03-01T00:02:26;36.83;;;24.90;;
24663;SDS011;12791;50.992;13.788;2023-03-01T00:04:52;39.97;;;25.65;;
24663;SDS011;12791;50.992;13.788;2023-03-01T00:07:19;36.25;;;24.60;;
24663;SDS011;12791;50.992;13.788;2023-03-01T00:09:46;39.20;;;24.58;;
24663;SDS011;12791;50.992;13.788;2023-03-01T00:12:12;42.65;;;27.67;;
24663;SDS011;12791;50.992;13.788;2023-03-01T00:14:40;43.13;;;26.85;;
24663;SDS011;12791;50.992;13.788;2023-03-01T00:17:07;42.55;;;26.23;;
24663;SDS011;12791;50.992;13.788;2023-03-01T00:19:34;40.67;;;26.98;;
24663;SDS011;12791;50.992;13.788;2023-03-01T00:22:00;39.67;;;26.77;;
24663;SDS011;12791;50.992;13.788;2023-03-01T00:24:27;42.53;;;27.08;;
24663;SDS011;12791;50.992;13.788;2023-03-01T00:26:54;40.38;;;27.05;;
24663;SDS011;12791;50.992;13.788;2023-03-01T00:29:21;43.45;;;27.73;;
24663;SDS011;12791;50.992;13.788;2023-03-01T00:31:50;38.40;;;27.15;;
24663;SDS011;12791;50.992;13.788;2023-03-01T00:34:16;43.58;;;28.02;;
24663;SDS011;12791;50.992;13.788;2023-03-01T00:36:43;49.22;;;28.38;;
24663;SDS011;12791;50.992;13.788;2023-03-01T00:39:11;45.00;;;28.42;;
24663;SDS011;12791;50.992;13.788;2023-03-01T00:41:39;43.90;;;27.17;;
24663;SDS011;12791;50.992;13.788;2023-03-01T00:44:06;43.10;;;27.50;;
24663;SDS011;12791;50.992;13.788;2023-03-01T00:46:32;39.40;;;26.17;;
24663;SDS011;12791;50.992;13.788;2023-03-01T00:49:00;41.92;;;26.73;;
24663;SDS011;12791;50.992;13.788;2023-03-01T00:51:29;38.58;;;24.52;;
24663;SDS011;12791;50.992;13.788;2023-03-01T00:53:57;36.33;;;24.27;;
24663;SDS011;12791;50.992;13.788;2023-03-01T00:56:24;34.65;;;22.67;;
24663;SDS011;12791;50.992;13.788;2023-03-01T00:58:51;35.47;;;22.88;;
24663;SDS011;12791;50.992;13.788;2023-03-01T01:01:19;36.30;;;23.27;;
24663;SDS011;12791;50.992;13.788;2023-03-01T01:03:48;35.70;;;23.13;;
24663;SDS011;12791;50.992;13.788;2023-03-01T01:06:18;35.90;;;22.95;;
24663;SDS011;12791;50.992;13.788;2023-03-01T01:08:46;32.40;;;21.48;;
24663;SDS011;12791;50.992;13.788;2023-03-01T01:11:13;38.47;;;23.48;;
24663;SDS011;12791;50.992;13.788;2023-03-01T01:13:40;35.05;;;22.38;;
24663;SDS011;12791;50.992;13.788;2023-03-01T01:16:08;35.05;;;23.15;;
24663;SDS011;12791;50.992;13.788;2023-03-01T01:18:34;35.10;;;23.50;;
24663;SDS011;12791;50.992;13.788;2023-03-01T01:21:05;36.97;;;22.77;;
24663;SDS011;12791;50.992;13.788;2023-03-01T01:23:34;33.75;;;21.67;;
24663;SDS011;12791;50.992;13.788;2023-03-01T01:26:05;32.35;;;22.50;;
24663;SDS011;12791;50.992;13.788;2023-03-01T01:28:33;34.20;;;22.35;;
24663;SDS011;12791;50.992;13.788;2023-03-01T01:31:00;34.67;;;21.83;;
24663;SDS011;12791;50.992;13.788;2023-03-01T01:33:27;36.90;;;23.30;;
24663;SDS011;12791;50.992;13.788;2023-03-01T01:35:53;36.47;;;24.50;;
24663;SDS011;12791;50.992;13.788;2023-03-01T01:38:20;33.85;;;22.52;;
24663;SDS011;12791;50.992;13.788;2023-03-01T01:40:49;37.15;;;23.88;;
24663;SDS011;12791;50.992;13.788;2023-03-01T01:43:20;30.92;;;21.00;;
24663;SDS011;12791;50.992;13.788;2023-03-01T01:45:48;31.30;;;21.50;;
24663;SDS011;12791;50.992;13.788;2023-03-01T01:48:16;34.97;;;23.08;;
24663;SDS011;12791;50.992;13.788;2023-03-01T01:50:47;36.63;;;23.55;;
24663;SDS011;12791;50.992;13.788;2023-03-01T01:53:19;35.17;;;21.92;;
24663;SDS011;12791;50.992;13.788;2023-03-01T01:55:48;33.03;;;22.88;;
24663;SDS011;12791;50.992;13.788;2023-03-01T01:58:19;38.65;;;23.85;;
24663;SDS011;12791;50.992;13.788;2023-03-01T02:00:47;32.65;;;21.90;;
24663;SDS011;12791;50.992;13.788;2023-03-01T02:03:16;33.95;;;22.73;;
24663;SDS011;12791;50.992;13.788;2023-03-01T02:05:46;31.60;;;21.75;;
24663;SDS011;12791;50.992;13.788;2023-03-01T02:08:17;35.95;;;22.98;;
24663;SDS011;12791;50.992;13.788;2023-03-01T02:10:45;38.95;;;24.60;;
24663;SDS011;12791;50.992;13.788;2023-03-01T02:13:15;38.70;;;23.60;;
24663;SDS011;12791;50.992;13.788;2023-03-01T02:15:41;34.72;;;22.60;;
24663;SDS011;12791;50.992;13.788;2023-03-01T02:18:10;34.97;;;22.73;;
24663;SDS011;12791;50.992;13.788;2023-03-01T02:20:40;35.08;;;23.25;;
24663;SDS011;12791;50.992;13.788;2023-03-01T02:23:15;35.15;;;23.35;;
24663;SDS011;12791;50.992;13.788;2023-03-01T02:25:44;48.90;;;24.58;;
24663;SDS011;12791;50.992;13.788;2023-03-01T02:28:21;39.50;;;23.58;;
24663;SDS011;12791;50.992;13.788;2023-03-01T02:30:52;43.42;;;26.27;;
24663;SDS011;12791;50.992;13.788;2023-03-01T02:33:37;45.05;;;27.65;;
24663;SDS011;12791;50.992;13.788;2023-03-01T02:36:06;42.10;;;26.65;;
24663;SDS011;12791;50.992;13.788;2023-03-01T02:38:36;43.40;;;26.08;;
24663;SDS011;12791;50.992;13.788;2023-03-01T02:41:03;41.33;;;25.83;;
24663;SDS011;12791;50.992;13.788;2023-03-01T02:43:33;38.47;;;24.38;;
24663;SDS011;12791;50.992;13.788;2023-03-01T02:46:02;42.13;;;25.00;;
24663;SDS011;12791;50.992;13.788;2023-03-01T02:48:38;40.80;;;26.17;;
24663;SDS011;12791;50.992;13.788;2023-03-01T02:51:09;40.85;;;26.67;;
24663;SDS011;12791;50.992;13.788;2023-03-01T02:53:45;37.00;;;24.33;;
24663;SDS011;12791;50.992;13.788;2023-03-01T02:56:20;37.70;;;24.13;;
24663;SDS011;12791;50.992;13.788;2023-03-01T02:58:48;36.15;;;22.80;;
24663;SDS011;12791;50.992;13.788;2023-03-01T03:01:16;36.55;;;22.45;;
24663;SDS011;12791;50.992;13.788;2023-03-01T03:03:43;36.28;;;23.23;;
24663;SDS011;12791;50.992;13.788;2023-03-01T03:06:10;36.47;;;22.50;;
24663;SDS011;12791;50.992;13.788;2023-03-01T03:08:37;35.50;;;21.95;;
24663;SDS011;12791;50.992;13.788;2023-03-01T03:11:04;38.03;;;22.15;;
24663;SDS011;12791;50.992;13.788;2023-03-01T03:13:30;33.92;;;21.60;;
24663;SDS011;12791;50.992;13.788;2023-03-01T03:15:58;33.90;;;21.75;;
24663;SDS011;12791;50.992;13.788;2023-03-01T03:18:25;37.50;;;23.90;;
24663;SDS011;12791;50.992;13.788;2023-03-01T03:20:52;38.60;;;23.70;;
24663;SDS011;12791;50.992;13.788;2023-03-01T03:23:19;40.50;;;24.40;;
24663;SDS011;12791;50.992;13.788;2023-03-01T03:25:47;38.25;;;23.60;;
24663;SDS011;12791;50.992;13.788;2023-03-01T03:28:14;43.35;;;25.77;;
24663;SDS011;12791;50.992;13.788;2023-03-01T03:30:41;35.67;;;22.35;;
24663;SDS011;12791;50.992;13.788;2023-03-01T03:33:10;37.05;;;23.73;;
24663;SDS011;12791;50.992;13.788;2023-03-01T03:35:39;36.80;;;23.00;;
24663;SDS011;12791;50.992;13.788;2023-03-01T03:38:07;33.63;;;21.60;;
24663;SDS011;12791;50.992;13.788;2023-03-01T03:40:41;37.20;;;23.98;;
24663;SDS011;12791;50.992;13.788;2023-03-01T03:43:11;35.35;;;22.30;;
24663;SDS011;12791;50.992;13.788;2023-03-01T03:45:38;37.75;;;23.45;;
24663;SDS011;12791;50.992;13.788;2023-03-01T03:48:06;37.78;;;22.80;;
24663;SDS011;12791;50.992;13.788;2023-03-01T03:50:36;43.38;;;24.80;;
24663;SDS011;12791;50.992;13.788;2023-03-01T03:53:05;42.45;;;26.15;;
24663;SDS011;12791;50.992;13.788;2023-03-01T03:55:33;41.10;;;26.85;;
24663;SDS011;12791;50.992;13.788;2023-03-01T03:58:03;39.33;;;24.95;;
24663;SDS011;12791;50.992;13.788;2023-03-01T04:00:32;40.63;;;25.58;;
24663;SDS011;12791;50.992;13.788;2023-03-01T04:03:00;43.83;;;26.85;;
24663;SDS011;12791;50.992;13.788;2023-03-01T04:05:26;40.90;;;26.80;;
24663;SDS011;12791;50.992;13.788;2023-03-01T04:07:55;40.72;;;25.80;;
24663;SDS011;12791;50.992;13.788;2023-03-01T04:10:32;43.22;;;25.70;;
24663;SDS011;12791;50.992;13.788;2023-03-01T04:13:00;45.75;;;26.85;;
24663;SDS011;12791;50.992;13.788;2023-03-01T04:15:26;39.80;;;24.88;;
24663;SDS011;12791;50.992;13.788;2023-03-01T04:17:53;42.85;;;25.98;;
24663;SDS011;12791;50.992;13.788;2023-03-01T04:20:22;44.38;;;26.65;;
24663;SDS011;12791;50.992;13.788;2023-03-01T04:22:50;46.22;;;27.08;;
24663;SDS011;12791;50.992;13.788;2023-03-01T04:25:19;41.08;;;24.67;;
24663;SDS011;12791;50.992;13.788;2023-03-01T04:27:46;37.92;;;26.08;;
24663;SDS011;12791;50.992;13.788;2023-03-01T04:30:13;43.58;;;27.00;;
24663;SDS011;12791;50.992;13.788;2023-03-01T04:32:40;43.83;;;27.25;;
24663;SDS011;12791;50.992;13.788;2023-03-01T04:35:07;43.35;;;26.77;;
24663;SDS011;12791;50.992;13.788;2023-03-01T04:37:34;43.30;;;26.50;;
24663;SDS011;12791;50.992;13.788;2023-03-01T04:40:02;42.60;;;26.40;;
24663;SDS011;12791;50.992;13.788;2023-03-01T04:42:38;40.70;;;25.70;;
24663;SDS011;12791;50.992;13.788;2023-03-01T04:45:05;43.17;;;26.40;;
24663;SDS011;12791;50.992;13.788;2023-03-01T04:47:37;46.25;;;27.73;;
24663;SDS011;12791;50.992;13.788;2023-03-01T04:50:05;40.50;;;25.90;;
24663;SDS011;12791;50.992;13.788;2023-03-01T04:52:33;40.88;;;26.02;;
24663;SDS011;12791;50.992;13.788;2023-03-01T04:55:00;39.95;;;24.80;;
24663;SDS011;12791;50.992;13.788;2023-03-01T04:57:26;41.30;;;26.33;;
24663;SDS011;12791;50.992;13.788;2023-03-01T04:59:54;42.25;;;27.60;;
24663;SDS011;12791;50.992;13.788;2023-03-01T05:02:21;41.08;;;26.00;;
24663;SDS011;12791;50.992;13.788;2023-03-01T05:04:48;41.67;;;25.63;;
24663;SDS011;12791;50.992;13.788;2023-03-01T05:07:15;38.47;;;24.30;;
24663;SDS011;12791;50.992;13.788;2023-03-01T05:09:44;38.88;;;23.90;;
24663;SDS011;12791;50.992;13.788;2023-03-01T05:12:10;39.25;;;24.33;;
24663;SDS011;12791;50.992;13.788;2023-03-01T05:14:37;43.40;;;25.90;;
24663;SDS011;12791;50.992;13.788;2023-03-01T05:17:05;44.05;;;26.05;;
24663;SDS011;12791;50.992;13.788;2023-03-01T05:19:32;43.47;;;26.83;;
24663;SDS011;12791;50.992;13.788;2023-03-01T05:21:59;41.65;;;25.15;;
24663;SDS011;12791;50.992;13.788;2023-03-01T05:24:30;41.40;;;25.23;;
24663;SDS011;12791;50.992;13.788;2023-03-01T05:26:58;40.35;;;25.38;;
24663;SDS011;12791;50.992;13.788;2023-03-01T05:29:25;41.10;;;24.67;;
24663;SDS011;12791;50.992;13.788;2023-03-01T05:31:54;46.70;;;27.77;;
24663;SDS011;12791;50.992;13.788;2023-03-01T05:34:24;47.75;;;26.33;;
24663;SDS011;12791;50.992;13.788;2023-03-01T05:36:51;39.35;;;23.15;;
24663;SDS011;12791;50.992;13.788;2023-03-01T05:39:19;36.72;;;23.10;;
24663;SDS011;12791;50.992;13.788;2023-03-01T05:41:47;35.25;;;21.90;;
24663;SDS011;12791;50.992;13.788;2023-03-01T05:44:14;39.42;;;24.35;;
24663;SDS011;12791;50.992;13.788;2023-03-01T05:46:41;43.22;;;24.88;;
24663;SDS011;12791;50.992;13.788;2023-03-01T05:49:07;39.30;;;22.95;;
24663;SDS011;12791;50.992;13.788;2023-03-01T05:51:35;42.22;;;25.55;;
24663;SDS011;12791;50.992;13.788;2023-03-01T05:54:02;40.75;;;25.02;;
24663;SDS011;12791;50.992;13.788;2023-03-01T05:56:31;40.03;;;24.30;;
24663;SDS011;12791;50.992;13.788;2023-03-01T05:58:59;48.60;;;29.60;;
24663;SDS011;12791;50.992;13.788;2023-03-01T06:01:25;46.55;;;28.25;;
24663;SDS011;12791;50.992;13.788;2023-03-01T06:03:52;59.85;;;33.83;;
24663;SDS011;12791;50.992;13.788;2023-03-01T06:06:19;53.78;;;31.80;;
24663;SDS011;12791;50.992;13.788;2023-03-01T06:08:47;47.28;;;31.27;;
24663;SDS011;12791;50.992;13.788;2023-03-01T06:11:14;45.00;;;28.75;;
24663;SDS011;12791;50.992;13.788;2023-03-01T06:13:40;39.78;;;25.40;;
24663;SDS011;12791;50.992;13.788;2023-03-01T06:16:08;42.72;;;26.10;;
24663;SDS011;12791;50.992;13.788;2023-03-01T06:18:35;38.90;;;24.60;;
24663;SDS011;12791;50.992;13.788;2023-03-01T06:21:01;46.83;;;28.25;;
24663;SDS011;12791;50.992;13.788;2023-03-01T06:23:28;41.63;;;26.25;;
24663;SDS011;12791;50.992;13.788;2023-03-01T06:25:57;42.38;;;25.10;;
24663;SDS011;12791;50.992;13.788;2023-03-01T06:28:24;40.00;;;24.98;;
24663;SDS011;12791;50.992;13.788;2023-03-01T06:30:50;42.03;;;25.38;;
24663;SDS011;12791;50.992;13.788;2023-03-01T06:33:17;41.08;;;26.10;;
24663;SDS011;12791;50.992;13.788;2023-03-01T06:35:45;41.95;;;26.30;;
24663;SDS011;12791;50.992;13.788;2023-03-01T06:38:11;42.72;;;25.42;;
24663;SDS011;12791;50.992;13.788;2023-03-01T06:40:40;40.97;;;23.63;;
24663;SDS011;12791;50.992;13.788;2023-03-01T06:43:08;38.75;;;23.30;;
24663;SDS011;12791;50.992;13.788;2023-03-01T06:45:35;38.85;;;23.52;;
24663;SDS011;12791;50.992;13.788;2023-03-01T06:48:03;38.60;;;23.77;;
24663;SDS011;12791;50.992;13.788;2023-03-01T06:50:31;39.83;;;24.02;;
24663;SDS011;12791;50.992;13.788;2023-03-01T06:52:58;42.97;;;25.73;;
24663;SDS011;12791;50.992;13.788;2023-03-01T06:55:25;41.30;;;24.52;;
24663;SDS011;12791;50.992;13.788;2023-03-01T06:57:53;43.63;;;25.80;;
24663;SDS011;12791;50.992;13.788;2023-03-01T07:00:22;41.13;;;26.70;;
24663;SDS011;12791;50.992;13.788;2023-03-01T07:02:50;42.53;;;25.83;;
24663;SDS011;12791;50.992;13.788;2023-03-01T07:05:17;41.50;;;27.15;;
24663;SDS011;12791;50.992;13.788;2023-03-01T07:07:44;47.75;;;29.08;;
24663;SDS011;12791;50.992;13.788;2023-03-01T07:10:10;47.72;;;29.05;;
24663;SDS011;12791;50.992;13.788;2023-03-01T07:12:38;47.33;;;29.88;;
24663;SDS011;12791;50.992;13.788;2023-03-01T07:15:06;49.53;;;31.42;;
24663;SDS011;12791;50.992;13.788;2023-03-01T07:17:36;47.72;;;30.50;;
24663;SDS011;12791;50.992;13.788;2023-03-01T07:20:03;51.75;;;30.83;;
24663;SDS011;12791;50.992;13.788;2023-03-01T07:22:30;49.40;;;30.80;;
24663;SDS011;12791;50.992;13.788;2023-03-01T07:24:57;49.20;;;31.83;;
24663;SDS011;12791;50.992;13.788;2023-03-01T07:27:24;57.65;;;31.38;;
24663;SDS011;12791;50.992;13.788;2023-03-01T07:29:50;53.28;;;32.63;;
24663;SDS011;12791;50.992;13.788;2023-03-01T07:32:17;57.72;;;33.63;;
24663;SDS011;12791;50.992;13.788;2023-03-01T07:34:45;53.08;;;32.58;;
24663;SDS011;12791;50.992;13.788;2023-03-01T07:37:12;48.05;;;29.67;;
24663;SDS011;12791;50.992;13.788;2023-03-01T07:39:38;49.33;;;30.52;;
24663;SDS011;12791;50.992;13.788;2023-03-01T07:42:05;45.60;;;28.73;;
24663;SDS011;12791;50.992;13.788;2023-03-01T07:44:31;55.13;;;29.88;;
24663;SDS011;12791;50.992;13.788;2023-03-01T07:46:58;48.92;;;29.92;;
24663;SDS011;12791;50.992;13.788;2023-03-01T07:49:25;53.97;;;30.52;;
24663;SDS011;12791;50.992;13.788;2023-03-01T07:51:53;43.67;;;28.10;;
24663;SDS011;12791;50.992;13.788;2023-03-01T07:54:21;46.67;;;29.42;;
24663;SDS011;12791;50.992;13.788;2023-03-01T07:56:48;54.22;;;30.30;;
24663;SDS011;12791;50.992;13.788;2023-03-01T07:59:14;48.38;;;30.13;;
24663;SDS011;12791;50.992;13.788;2023-03-01T08:01:41;47.72;;;30.90;;
24663;SDS011;12791;50.992;13.788;2023-03-01T08:04:07;52.75;;;30.33;;
24663;SDS011;12791;50.992;13.788;2023-03-01T08:06:35;58.92;;;33.00;;
24663;SDS011;12791;50.992;13.788;2023-03-01T08:09:03;49.58;;;31.40;;
24663;SDS011;12791;50.992;13.788;2023-03-01T08:11:30;46.10;;;29.20;;
24663;SDS011;12791;50.992;13.788;2023-03-01T08:13:56;50.83;;;31.20;;
24663;SDS011;12791;50.992;13.788;2023-03-01T08:16:23;43.47;;;28.98;;
24663;SDS011;12791;50.992;13.788;2023-03-01T08:18:50;47.17;;;30.20;;
24663;SDS011;12791;50.992;13.788;2023-03-01T08:21:17;52.20;;;31.35;;
24663;SDS011;12791;50.992;13.788;2023-03-01T08:23:44;51.20;;;32.42;;
24663;SDS011;12791;50.992;13.788;2023-03-01T08:26:12;49.83;;;31.40;;
24663;SDS011;12791;50.992;13.788;2023-03-01T08:28:40;56.28;;;31.95;;
24663;SDS011;12791;50.992;13.788;2023-03-01T08:31:14;49.22;;;31.40;;
24663;SDS011;12791;50.992;13.788;2023-03-01T08:33:42;52.38;;;31.77;;
24663;SDS011;12791;50.992;13.788;2023-03-01T08:36:08;50.35;;;32.22;;
24663;SDS011;12791;50.992;13.788;2023-03-01T08:38:35;51.00;;;32.28;;
24663;SDS011;12791;50.992;13.788;2023-03-01T08:41:02;50.42;;;31.42;;
24663;SDS011;12791;50.992;13.788;2023-03-01T08:43:30;51.92;;;32.45;;
24663;SDS011;12791;50.992;13.788;2023-03-01T08:45:57;51.38;;;32.33;;
24663;SDS011;12791;50.992;13.788;2023-03-01T08:48:24;59.17;;;34.97;;
24663;SDS011;12791;50.992;13.788;2023-03-01T08:50:51;54.33;;;32.83;;
24663;SDS011;12791;50.992;13.788;2023-03-01T08:53:17;53.88;;;32.22;;
24663;SDS011;12791;50.992;13.788;2023-03-01T08:55:44;51.33;;;31.40;;
24663;SDS011;12791;50.992;13.788;2023-03-01T08:58:10;48.13;;;31.27;;
24663;SDS011;12791;50.992;13.788;2023-03-01T09:00:38;46.92;;;31.42;;
24663;SDS011;12791;50.992;13.788;2023-03-01T09:03:06;51.03;;;32.45;;
24663;SDS011;12791;50.992;13.788;2023-03-01T09:05:32;51.50;;;32.63;;
24663;SDS011;12791;50.992;13.788;2023-03-01T09:07:59;55.92;;;32.72;;
24663;SDS011;12791;50.992;13.788;2023-03-01T09:10:26;51.92;;;32.55;;
24663;SDS011;12791;50.992;13.788;2023-03-01T09:12:52;49.95;;;32.00;;
24663;SDS011;12791;50.992;13.788;2023-03-01T09:15:19;52.95;;;31.95;;
24663;SDS011;12791;50.992;13.788;2023-03-01T09:17:47;48.05;;;30.67;;
24663;SDS011;12791;50.992;13.788;2023-03-01T09:20:13;45.08;;;30.98;;
24663;SDS011;12791;50.992;13.788;2023-03-01T09:22:40;55.67;;;34.13;;
24663;SDS011;12791;50.992;13.788;2023-03-01T09:25:07;45.97;;;29.00;;
24663;SDS011;12791;50.992;13.788;2023-03-01T09:27:34;56.78;;;33.13;;
24663;SDS011;12791;50.992;13.788;2023-03-01T09:30:01;53.03;;;32.72;;
24663;SDS011;12791;50.992;13.788;2023-03-01T09:32:29;47.75;;;30.63;;
24663;SDS011;12791;50.992;13.788;2023-03-01T09:34:58;51.97;;;32.25;;
24663;SDS011;12791;50.992;13.788;2023-03-01T09:37:29;54.35;;;32.47;;
24663;SDS011;12791;50.992;13.788;2023-03-01T09:39:57;48.00;;;30.38;;
24663;SDS011;12791;50.992;13.788;2023-03-01T09:42:23;55.50;;;32.05;;
24663;SDS011;12791;50.992;13.788;2023-03-01T09:44:51;45.40;;;29.33;;
24663;SDS011;12791;50.992;13.788;2023-03-01T09:47:24;49.80;;;31.23;;
24663;SDS011;12791;50.992;13.788;2023-03-01T09:49:58;48.33;;;30.15;;
24663;SDS011;12791;50.992;13.788;2023-03-01T09:52:33;53.45;;;34.22;;
24663;SDS011;12791;50.992;13.788;2023-03-01T09:55:04;48.17;;;30.83;;
24663;SDS011;12791;50.992;13.788;2023-03-01T09:57:36;48.10;;;29.63;;
24663;SDS011;12791;50.992;13.788;2023-03-01T10:00:12;45.28;;;28.63;;
24663;SDS011;12791;50.992;13.788;2023-03-01T10:02:48;45.83;;;27.98;;
24663;SDS011;12791;50.992;13.788;2023-03-01T10:05:27;43.67;;;28.05;;
24663;SDS011;12791;50.992;13.788;2023-03-01T10:08:06;49.80;;;31.63;;
24663;SDS011;12791;50.992;13.788;2023-03-01T10:10:50;50.45;;;31.65;;
24663;SDS011;12791;50.992;13.788;2023-03-01T10:13:19;46.53;;;30.95;;
24663;SDS011;12791;50.992;13.788;2023-03-01T10:15:50;51.63;;;31.10;;
24663;SDS011;12791;50.992;13.788;2023-03-01T10:18:22;44.22;;;29.95;;
24663;SDS011;12791;50.992;13.788;2023-03-01T10:20:53;53.08;;;33.92;;
24663;SDS011;12791;50.992;13.788;2023-03-01T10:23:22;61.65;;;38.72;;
24663;SDS011;12791;50.992;13.788;2023-03-01T10:25:54;58.85;;;35.85;;
24663;SDS011;12791;50.992;13.788;2023-03-01T10:28:36;48.60;;;32.13;;
24663;SDS011;12791;50.992;13.788;2023-03-01T10:31:11;48.53;;;31.50;;
24663;SDS011;12791;50.992;13.788;2023-03-01T10:33:40;48.40;;;32.63;;
24663;SDS011;12791;50.992;13.788;2023-03-01T10:36:08;50.03;;;31.33;;
24663;SDS011;12791;50.992;13.788;2023-03-01T10:38:47;49.85;;;30.80;;
24663;SDS011;12791;50.992;13.788;2023-03-01T10:41:17;51.70;;;29.65;;
24663;SDS011;12791;50.992;13.788;2023-03-01T10:43:44;51.80;;;31.30;;
24663;SDS011;12791;50.992;13.788;2023-03-01T10:46:23;53.05;;;33.10;;
24663;SDS011;12791;50.992;13.788;2023-03-01T10:49:12;47.22;;;31.63;;
24663;SDS011;12791;50.992;13.788;2023-03-01T10:51:43;49.95;;;32.33;;
24663;SDS011;12791;50.992;13.788;2023-03-01T10:54:18;54.28;;;33.28;;
24663;SDS011;12791;50.992;13.788;2023-03-01T10:56:47;50.22;;;30.95;;
24663;SDS011;12791;50.992;13.788;2023-03-01T10:59:19;52.58;;;31.60;;
24663;SDS011;12791;50.992;13.788;2023-03-01T11:02:00;45.20;;;30.00;;
24663;SDS011;12791;50.992;13.788;2023-03-01T11:04:29;50.60;;;32.50;;
24663;SDS011;12791;50.992;13.788;2023-03-01T11:07:00;44.92;;;29.70;;
24663;SDS011;12791;50.992;13.788;2023-03-01T11:09:30;47.03;;;29.30;;
24663;SDS011;12791;50.992;13.788;2023-03-01T11:12:02;46.22;;;28.77;;
24663;SDS011;12791;50.992;13.788;2023-03-01T11:14:32;49.17;;;27.92;;
24663;SDS011;12791;50.992;13.788;2023-03-01T11:17:03;42.92;;;28.42;;
24663;SDS011;12791;50.992;13.788;2023-03-01T11:19:31;40.55;;;27.15;;
24663;SDS011;12791;50.992;13.788;2023-03-01T11:22:01;40.05;;;25.70;;
24663;SDS011;12791;50.992;13.788;2023-03-01T11:24:31;40.72;;;25.75;;
24663;SDS011;12791;50.992;13.788;2023-03-01T11:27:03;36.42;;;24.42;;
24663;SDS011;12791;50.992;13.788;2023-03-01T11:29:35;38.50;;;24.43;;
24663;SDS011;12791;50.992;13.788;2023-03-01T11:32:06;37.90;;;24.20;;
24663;SDS011;12791;50.992;13.788;2023-03-01T11:34:37;34.47;;;23.73;;
24663;SDS011;12791;50.992;13.788;2023-03-01T11:37:12;37.15;;;24.25;;
24663;SDS011;12791;50.992;13.788;2023-03-01T11:39:51;36.97;;;23.35;;
24663;SDS011;12791;50.992;13.788;2023-03-01T11:42:24;35.10;;;22.13;;
24663;SDS011;12791;50.992;13.788;2023-03-01T11:44:56;31.30;;;21.75;;
24663;SDS011;12791;50.992;13.788;2023-03-01T11:47:31;35.30;;;22.38;;
24663;SDS011;12791;50.992;13.788;2023-03-01T11:50:10;35.10;;;22.02;;
24663;SDS011;12791;50.992;13.788;2023-03-01T11:52:58;35.53;;;23.95;;
24663;SDS011;12791;50.992;13.788;2023-03-01T11:55:46;31.88;;;21.25;;
24663;SDS011;12791;50.992;13.788;2023-03-01T11:58:32;31.92;;;20.92;;
24663;SDS011;12791;50.992;13.788;2023-03-01T12:01:11;32.60;;;21.02;;
24663;SDS011;12791;50.992;13.788;2023-03-01T12:03:52;30.10;;;20.85;;
24663;SDS011;12791;50.992;13.788;2023-03-01T12:06:35;32.40;;;21.80;;
24663;SDS011;12791;50.992;13.788;2023-03-01T12:09:23;28.95;;;20.30;;
24663;SDS011;12791;50.992;13.788;2023-03-01T12:12:08;33.55;;;21.27;;
24663;SDS011;12791;50.992;13.788;2023-03-01T12:14:55;30.20;;;19.45;;
24663;SDS011;12791;50.992;13.788;2023-03-01T12:17:40;30.95;;;21.08;;
24663;SDS011;12791;50.992;13.788;2023-03-01T12:20:26;30.30;;;21.23;;
24663;SDS011;12791;50.992;13.788;2023-03-01T12:25:53;33.10;;;23.15;;
24663;SDS011;12791;50.992;13.788;2023-03-01T12:28:36;33.17;;;21.83;;
24663;SDS011;12791;50.992;13.788;2023-03-01T12:31:25;36.05;;;22.65;;
24663;SDS011;12791;50.992;13.788;2023-03-01T12:34:16;32.58;;;21.25;;
24663;SDS011;12791;50.992;13.788;2023-03-01T12:37:04;36.50;;;21.90;;
24663;SDS011;12791;50.992;13.788;2023-03-01T12:39:46;32.88;;;20.92;;
24663;SDS011;12791;50.992;13.788;2023-03-01T12:42:27;32.67;;;22.42;;
24663;SDS011;12791;50.992;13.788;2023-03-01T12:45:04;38.00;;;24.05;;
24663;SDS011;12791;50.992;13.788;2023-03-01T12:47:53;36.05;;;24.00;;
24663;SDS011;12791;50.992;13.788;2023-03-01T12:50:32;36.60;;;24.42;;
24663;SDS011;12791;50.992;13.788;2023-03-01T12:53:05;35.60;;;24.38;;
24663;SDS011;12791;50.992;13.788;2023-03-01T12:55:41;37.05;;;24.02;;
24663;SDS011;12791;50.992;13.788;2023-03-01T12:58:13;35.55;;;23.00;;
24663;SDS011;12791;50.992;13.788;2023-03-01T13:00:52;34.55;;;23.33;;
24663;SDS011;12791;50.992;13.788;2023-03-01T13:03:29;34.88;;;22.38;;
24663;SDS011;12791;50.992;13.788;2023-03-01T13:06:07;34.53;;;23.35;;
24663;SDS011;12791;50.992;13.788;2023-03-01T13:11:11;34.55;;;23.13;;
24663;SDS011;12791;50.992;13.788;2023-03-01T13:13:44;37.40;;;23.73;;
24663;SDS011;12791;50.992;13.788;2023-03-01T13:16:19;39.28;;;24.52;;
24663;SDS011;12791;50.992;13.788;2023-03-01T13:18:48;38.00;;;23.23;;
24663;SDS011;12791;50.992;13.788;2023-03-01T13:21:20;36.35;;;23.58;;
24663;SDS011;12791;50.992;13.788;2023-03-01T13:23:56;34.35;;;23.70;;
24663;SDS011;12791;50.992;13.788;2023-03-01T13:26:22;35.65;;;23.20;;
24663;SDS011;12791;50.992;13.788;2023-03-01T13:28:54;31.58;;;21.65;;
24663;SDS011;12791;50.992;13.788;2023-03-01T13:37:09;36.03;;;23.40;;
24663;SDS011;12791;50.992;13.788;2023-03-01T13:39:39;34.25;;;22.50;;
24663;SDS011;12791;50.992;13.788;2023-03-01T13:45:00;38.08;;;24.30;;
24663;SDS011;12791;50.992;13.788;2023-03-01T13:47:27;40.67;;;24.05;;
24663;SDS011;12791;50.992;13.788;2023-03-01T13:49:55;34.90;;;24.05;;
24663;SDS011;12791;50.992;13.788;2023-03-01T13:52:29;35.65;;;22.17;;
24663;SDS011;12791;50.992;13.788;2023-03-01T13:55:05;35.10;;;23.00;;
24663;SDS011;12791;50.992;13.788;2023-03-01T13:57:43;37.35;;;23.20;;
24663;SDS011;12791;50.992;13.788;2023-03-01T14:00:26;38.40;;;24.60;;
24663;SDS011;12791;50.992;13.788;2023-03-01T14:03:05;37.60;;;23.73;;
24663;SDS011;12791;50.992;13.788;2023-03-01T14:05:35;27.70;;;20.13;;
24663;SDS011;12791;50.992;13.788;2023-03-01T14:08:02;30.50;;;20.95;;
24663;SDS011;12791;50.992;13.788;2023-03-01T14:10:31;36.10;;;21.27;;
24663;SDS011;12791;50.992;13.788;2023-03-01T14:13:05;36.70;;;23.23;;
24663;SDS011;12791;50.992;13.788;2023-03-01T14:15:50;37.53;;;23.45;;
24663;SDS011;12791;50.992;13.788;2023-03-01T14:18:31;32.70;;;21.90;;
24663;SDS011;12791;50.992;13.788;2023-03-01T14:21:07;33.75;;;21.00;;
24663;SDS011;12791;50.992;13.788;2023-03-01T14:23:33;28.02;;;19.30;;
24663;SDS011;12791;50.992;13.788;2023-03-01T14:26:01;34.80;;;21.23;;
24663;SDS011;12791;50.992;13.788;2023-03-01T14:28:29;32.00;;;21.13;;
24663;SDS011;12791;50.992;13.788;2023-03-01T14:31:00;33.97;;;21.88;;
24663;SDS011;12791;50.992;13.788;2023-03-01T14:33:28;37.45;;;21.92;;
24663;SDS011;12791;50.992;13.788;2023-03-01T14:35:58;31.38;;;20.40;;
24663;SDS011;12791;50.992;13.788;2023-03-01T14:38:33;36.42;;;22.17;;
24663;SDS011;12791;50.992;13.788;2023-03-01T14:41:02;34.88;;;21.95;;